sensor_id;sensor_type;location;lat;lon;timestamp;temperature;humidity
51615;DHT22;37695;52.960;6.188;2022-07-29T00:00:39;15.20;99.90
51615;DHT22;37695;52.960;6.188;2022-07-29T00:03:05;15.20;99.90
51615;DHT22;37695;52.960;6.188;2022-07-29T00:05:30;15.20;99.90
51615;DHT22;37695;52.960;6.188;2022-07-29T00:07:56;15.20;99.90
51615;DHT22;37695;52.960;6.188;2022-07-29T00:10:22;15.20;99.90
51615;DHT22;37695;52.960;6.188;2022-07-29T00:12:47;15.20;99.90
51615;DHT22;37695;52.960;6.188;2022-07-29T00:15:13;15.20;99.90
51615;DHT22;37695;52.960;6.188;2022-07-29T00:17:39;15.20;99.90
51615;DHT22;37695;52.960;6.188;2022-07-29T00:20:05;15.20;99.90
51615;DHT22;37695;52.960;6.188;2022-07-29T00:22:30;15.20;99.90
51615;DHT22;37695;52.960;6.188;2022-07-29T00:24:56;15.10;99.90
51615;DHT22;37695;52.960;6.188;2022-07-29T00:27:21;15.10;99.90
51615;DHT22;37695;52.960;6.188;2022-07-29T00:29:47;15.10;99.90
51615;DHT22;37695;52.960;6.188;2022-07-29T00:32:13;15.10;99.90
51615;DHT22;37695;52.960;6.188;2022-07-29T00:34:39;15.10;99.90
51615;DHT22;37695;52.960;6.188;2022-07-29T00:37:23;15.00;99.90
51615;DHT22;37695;52.960;6.188;2022-07-29T00:39:49;15.00;99.90
51615;DHT22;37695;52.960;6.188;2022-07-29T00:42:14;15.10;99.90
51615;DHT22;37695;52.960;6.188;2022-07-29T00:44:41;15.00;99.90
51615;DHT22;37695;52.960;6.188;2022-07-29T00:47:09;15.00;99.90
51615;DHT22;37695;52.960;6.188;2022-07-29T00:49:35;14.90;99.90
51615;DHT22;37695;52.960;6.188;2022-07-29T00:52:02;14.90;99.90
51615;DHT22;37695;52.960;6.188;2022-07-29T00:54:28;14.90;99.90
51615;DHT22;37695;52.960;6.188;2022-07-29T00:56:56;14.90;99.90
51615;DHT22;37695;52.960;6.188;2022-07-29T00:59:23;14.90;99.90
51615;DHT22;37695;52.960;6.188;2022-07-29T01:01:48;14.80;99.90
51615;DHT22;37695;52.960;6.188;2022-07-29T01:04:14;14.80;99.90
51615;DHT22;37695;52.960;6.188;2022-07-29T01:06:40;14.80;99.90
51615;DHT22;37695;52.960;6.188;2022-07-29T01:09:06;14.80;99.90
51615;DHT22;37695;52.960;6.188;2022-07-29T01:11:32;14.80;99.90
51615;DHT22;37695;52.960;6.188;2022-07-29T01:13:59;14.80;99.90
51615;DHT22;37695;52.960;6.188;2022-07-29T01:16:31;14.80;99.90
51615;DHT22;37695;52.960;6.188;2022-07-29T01:19:06;14.80;99.90
51615;DHT22;37695;52.960;6.188;2022-07-29T01:21:54;14.80;99.90
51615;DHT22;37695;52.960;6.188;2022-07-29T01:27:44;14.80;99.90
51615;DHT22;37695;52.960;6.188;2022-07-29T01:30:14;14.80;99.90
51615;DHT22;37695;52.960;6.188;2022-07-29T01:32:41;14.70;99.90
51615;DHT22;37695;52.960;6.188;2022-07-29T01:35:19;14.80;99.90
51615;DHT22;37695;52.960;6.188;2022-07-29T01:37:50;14.80;99.90
51615;DHT22;37695;52.960;6.188;2022-07-29T01:40:24;14.80;99.90
51615;DHT22;37695;52.960;6.188;2022-07-29T01:42:56;14.80;99.90
51615;DHT22;37695;52.960;6.188;2022-07-29T01:45:45;14.80;99.90
51615;DHT22;37695;52.960;6.188;2022-07-29T01:50:56;14.80;99.90
51615;DHT22;37695;52.960;6.188;2022-07-29T01:53:32;14.80;99.90
51615;DHT22;37695;52.960;6.188;2022-07-29T01:56:00;14.80;99.90
51615;DHT22;37695;52.960;6.188;2022-07-29T01:58:28;14.80;99.90
51615;DHT22;37695;52.960;6.188;2022-07-29T02:00:57;14.80;99.90
51615;DHT22;37695;52.960;6.188;2022-07-29T02:03:24;14.80;99.90
51615;DHT22;37695;52.960;6.188;2022-07-29T02:05:52;14.80;99.90
51615;DHT22;37695;52.960;6.188;2022-07-29T02:08:19;14.80;99.90
51615;DHT22;37695;52.960;6.188;2022-07-29T02:10:45;14.90;99.90
51615;DHT22;37695;52.960;6.188;2022-07-29T02:13:13;14.80;99.90
51615;DHT22;37695;52.960;6.188;2022-07-29T02:15:42;14.90;99.90
51615;DHT22;37695;52.960;6.188;2022-07-29T02:18:13;14.80;99.90
51615;DHT22;37695;52.960;6.188;2022-07-29T02:20:42;14.80;99.90
51615;DHT22;37695;52.960;6.188;2022-07-29T02:23:10;14.80;99.90
51615;DHT22;37695;52.960;6.188;2022-07-29T02:25:37;14.90;99.90
51615;DHT22;37695;52.960;6.188;2022-07-29T02:28:04;14.90;99.90
51615;DHT22;37695;52.960;6.188;2022-07-29T02:30:31;14.80;99.90
51615;DHT22;37695;52.960;6.188;2022-07-29T02:32:58;14.90;99.90
51615;DHT22;37695;52.960;6.188;2022-07-29T02:35:25;14.80;99.90
51615;DHT22;37695;52.960;6.188;2022-07-29T02:37:51;14.80;99.90
51615;DHT22;37695;52.960;6.188;2022-07-29T02:40:38;14.80;99.90
51615;DHT22;37695;52.960;6.188;2022-07-29T02:43:06;14.80;99.90
51615;DHT22;37695;52.960;6.188;2022-07-29T02:45:33;14.80;99.90
51615;DHT22;37695;52.960;6.188;2022-07-29T02:48:00;14.80;99.90
51615;DHT22;37695;52.960;6.188;2022-07-29T02:50:34;14.90;99.90
51615;DHT22;37695;52.960;6.188;2022-07-29T02:53:07;14.80;99.90
51615;DHT22;37695;52.960;6.188;2022-07-29T02:55:43;14.80;99.90
51615;DHT22;37695;52.960;6.188;2022-07-29T03:00:57;14.80;99.90
51615;DHT22;37695;52.960;6.188;2022-07-29T03:03:25;14.90;99.90
51615;DHT22;37695;52.960;6.188;2022-07-29T03:05:57;14.90;99.90
51615;DHT22;37695;52.960;6.188;2022-07-29T03:08:24;14.90;99.90
51615;DHT22;37695;52.960;6.188;2022-07-29T03:10:52;14.90;99.90
51615;DHT22;37695;52.960;6.188;2022-07-29T03:13:19;14.90;99.90
51615;DHT22;37695;52.960;6.188;2022-07-29T03:15:45;14.90;99.90
51615;DHT22;37695;52.960;6.188;2022-07-29T03:18:11;14.90;99.90
51615;DHT22;37695;52.960;6.188;2022-07-29T03:20:38;14.90;99.90
51615;DHT22;37695;52.960;6.188;2022-07-29T03:23:04;14.90;99.90
51615;DHT22;37695;52.960;6.188;2022-07-29T03:25:30;14.90;99.90
51615;DHT22;37695;52.960;6.188;2022-07-29T03:27:56;14.90;99.90
51615;DHT22;37695;52.960;6.188;2022-07-29T03:30:22;14.90;99.90
51615;DHT22;37695;52.960;6.188;2022-07-29T03:32:49;14.90;99.90
51615;DHT22;37695;52.960;6.188;2022-07-29T03:35:15;14.90;99.90
51615;DHT22;37695;52.960;6.188;2022-07-29T03:37:45;14.90;99.90
51615;DHT22;37695;52.960;6.188;2022-07-29T03:40:14;14.80;99.90
51615;DHT22;37695;52.960;6.188;2022-07-29T03:42:42;14.80;99.90
51615;DHT22;37695;52.960;6.188;2022-07-29T03:45:12;14.80;99.90
51615;DHT22;37695;52.960;6.188;2022-07-29T03:47:43;14.80;99.90
51615;DHT22;37695;52.960;6.188;2022-07-29T03:50:12;14.70;99.90
51615;DHT22;37695;52.960;6.188;2022-07-29T03:52:40;14.80;99.90
51615;DHT22;37695;52.960;6.188;2022-07-29T03:55:06;14.70;99.90
51615;DHT22;37695;52.960;6.188;2022-07-29T03:57:33;14.70;99.90
51615;DHT22;37695;52.960;6.188;2022-07-29T04:00:01;14.70;99.90
51615;DHT22;37695;52.960;6.188;2022-07-29T04:02:28;14.70;99.90
51615;DHT22;37695;52.960;6.188;2022-07-29T04:04:53;14.70;99.90
51615;DHT22;37695;52.960;6.188;2022-07-29T04:07:19;14.60;99.90
51615;DHT22;37695;52.960;6.188;2022-07-29T04:09:44;14.60;99.90
51615;DHT22;37695;52.960;6.188;2022-07-29T04:12:10;14.60;99.90
51615;DHT22;37695;52.960;6.188;2022-07-29T04:14:36;14.60;99.90
51615;DHT22;37695;52.960;6.188;2022-07-29T04:17:03;14.60;99.90
51615;DHT22;37695;52.960;6.188;2022-07-29T04:19:30;14.60;99.90
51615;DHT22;37695;52.960;6.188;2022-07-29T04:21:56;14.60;99.90
51615;DHT22;37695;52.960;6.188;2022-07-29T04:24:22;14.60;99.90
51615;DHT22;37695;52.960;6.188;2022-07-29T04:26:48;14.60;99.90
51615;DHT22;37695;52.960;6.188;2022-07-29T04:29:14;14.50;99.90
51615;DHT22;37695;52.960;6.188;2022-07-29T04:31:40;14.60;99.90
51615;DHT22;37695;52.960;6.188;2022-07-29T04:34:06;14.50;99.90
51615;DHT22;37695;52.960;6.188;2022-07-29T04:36:32;14.50;99.90
51615;DHT22;37695;52.960;6.188;2022-07-29T04:38:57;14.50;99.90
51615;DHT22;37695;52.960;6.188;2022-07-29T04:41:23;14.50;99.90
51615;DHT22;37695;52.960;6.188;2022-07-29T04:43:49;14.50;99.90
51615;DHT22;37695;52.960;6.188;2022-07-29T04:46:14;14.50;99.90
51615;DHT22;37695;52.960;6.188;2022-07-29T04:48:40;14.50;99.90
51615;DHT22;37695;52.960;6.188;2022-07-29T04:51:05;14.50;99.90
51615;DHT22;37695;52.960;6.188;2022-07-29T04:53:31;14.50;99.90
51615;DHT22;37695;52.960;6.188;2022-07-29T04:55:56;14.50;99.90
51615;DHT22;37695;52.960;6.188;2022-07-29T04:58:22;14.50;99.90
51615;DHT22;37695;52.960;6.188;2022-07-29T05:00:49;14.50;99.90
51615;DHT22;37695;52.960;6.188;2022-07-29T05:03:15;14.50;99.90
51615;DHT22;37695;52.960;6.188;2022-07-29T05:05:40;14.50;99.90
51615;DHT22;37695;52.960;6.188;2022-07-29T05:08:06;14.60;99.90
51615;DHT22;37695;52.960;6.188;2022-07-29T05:10:32;14.60;99.90
51615;DHT22;37695;52.960;6.188;2022-07-29T05:12:59;14.60;99.90
51615;DHT22;37695;52.960;6.188;2022-07-29T05:15:24;14.60;99.90
51615;DHT22;37695;52.960;6.188;2022-07-29T05:17:50;14.60;99.90
51615;DHT22;37695;52.960;6.188;2022-07-29T05:20:16;14.70;99.90
51615;DHT22;37695;52.960;6.188;2022-07-29T05:22:41;14.60;99.90
51615;DHT22;37695;52.960;6.188;2022-07-29T05:25:07;14.60;99.90
51615;DHT22;37695;52.960;6.188;2022-07-29T05:27:35;14.60;99.90
51615;DHT22;37695;52.960;6.188;2022-07-29T05:30:00;14.60;99.90
51615;DHT22;37695;52.960;6.188;2022-07-29T05:32:26;14.60;99.90
51615;DHT22;37695;52.960;6.188;2022-07-29T05:34:52;14.70;99.90
51615;DHT22;37695;52.960;6.188;2022-07-29T05:37:20;14.60;99.90
51615;DHT22;37695;52.960;6.188;2022-07-29T05:39:46;14.60;99.90
51615;DHT22;37695;52.960;6.188;2022-07-29T05:42:12;14.60;99.90
51615;DHT22;37695;52.960;6.188;2022-07-29T05:44:38;14.60;99.90
51615;DHT22;37695;52.960;6.188;2022-07-29T05:47:04;14.50;99.90
51615;DHT22;37695;52.960;6.188;2022-07-29T05:49:30;14.50;99.90
51615;DHT22;37695;52.960;6.188;2022-07-29T05:51:55;14.50;99.90
51615;DHT22;37695;52.960;6.188;2022-07-29T05:54:21;14.50;99.90
51615;DHT22;37695;52.960;6.188;2022-07-29T05:56:46;14.60;99.90
51615;DHT22;37695;52.960;6.188;2022-07-29T05:59:12;14.60;99.90
51615;DHT22;37695;52.960;6.188;2022-07-29T06:01:37;14.70;99.90
51615;DHT22;37695;52.960;6.188;2022-07-29T06:04:08;14.70;99.90
51615;DHT22;37695;52.960;6.188;2022-07-29T06:06:34;14.80;99.90
51615;DHT22;37695;52.960;6.188;2022-07-29T06:09:01;14.90;99.90
51615;DHT22;37695;52.960;6.188;2022-07-29T06:11:27;15.00;99.90
51615;DHT22;37695;52.960;6.188;2022-07-29T06:13:52;15.10;99.90
51615;DHT22;37695;52.960;6.188;2022-07-29T06:16:18;15.10;99.90
51615;DHT22;37695;52.960;6.188;2022-07-29T06:18:44;15.20;99.90
51615;DHT22;37695;52.960;6.188;2022-07-29T06:21:10;15.20;99.90
51615;DHT22;37695;52.960;6.188;2022-07-29T06:23:39;15.30;99.90
51615;DHT22;37695;52.960;6.188;2022-07-29T06:26:05;15.30;99.90
51615;DHT22;37695;52.960;6.188;2022-07-29T06:28:31;15.50;99.90
51615;DHT22;37695;52.960;6.188;2022-07-29T06:30:57;15.50;99.90
51615;DHT22;37695;52.960;6.188;2022-07-29T06:33:23;15.60;99.90
51615;DHT22;37695;52.960;6.188;2022-07-29T06:35:49;15.80;99.90
51615;DHT22;37695;52.960;6.188;2022-07-29T06:38:15;15.90;99.90
51615;DHT22;37695;52.960;6.188;2022-07-29T06:40:44;15.90;99.90
51615;DHT22;37695;52.960;6.188;2022-07-29T06:43:44;16.00;99.90
51615;DHT22;37695;52.960;6.188;2022-07-29T06:46:13;16.10;99.90
51615;DHT22;37695;52.960;6.188;2022-07-29T06:48:39;16.10;99.90
51615;DHT22;37695;52.960;6.188;2022-07-29T06:51:06;16.20;99.90
51615;DHT22;37695;52.960;6.188;2022-07-29T06:53:32;16.20;99.90
51615;DHT22;37695;52.960;6.188;2022-07-29T06:55:59;16.30;99.90
51615;DHT22;37695;52.960;6.188;2022-07-29T06:58:28;16.30;99.90
51615;DHT22;37695;52.960;6.188;2022-07-29T07:00:54;16.40;99.90
51615;DHT22;37695;52.960;6.188;2022-07-29T07:03:21;16.40;99.90
51615;DHT22;37695;52.960;6.188;2022-07-29T07:05:47;16.40;99.90
51615;DHT22;37695;52.960;6.188;2022-07-29T07:08:13;16.40;99.90
51615;DHT22;37695;52.960;6.188;2022-07-29T07:10:39;16.40;99.90
51615;DHT22;37695;52.960;6.188;2022-07-29T07:13:05;16.40;99.90
51615;DHT22;37695;52.960;6.188;2022-07-29T07:15:31;16.50;99.90
51615;DHT22;37695;52.960;6.188;2022-07-29T07:17:57;16.50;99.90
51615;DHT22;37695;52.960;6.188;2022-07-29T07:20:25;16.50;99.90
51615;DHT22;37695;52.960;6.188;2022-07-29T07:22:51;16.50;99.90
51615;DHT22;37695;52.960;6.188;2022-07-29T07:25:16;16.60;99.90
51615;DHT22;37695;52.960;6.188;2022-07-29T07:27:43;16.60;99.90
51615;DHT22;37695;52.960;6.188;2022-07-29T07:30:09;16.60;99.90
51615;DHT22;37695;52.960;6.188;2022-07-29T07:32:35;16.70;99.90
51615;DHT22;37695;52.960;6.188;2022-07-29T07:35:02;16.70;99.90
51615;DHT22;37695;52.960;6.188;2022-07-29T07:37:28;16.70;99.90
51615;DHT22;37695;52.960;6.188;2022-07-29T07:39:54;16.80;99.90
51615;DHT22;37695;52.960;6.188;2022-07-29T07:42:20;16.80;99.90
51615;DHT22;37695;52.960;6.188;2022-07-29T07:44:45;16.90;99.90
51615;DHT22;37695;52.960;6.188;2022-07-29T07:47:12;16.90;99.90
51615;DHT22;37695;52.960;6.188;2022-07-29T07:49:38;16.90;99.90
51615;DHT22;37695;52.960;6.188;2022-07-29T07:52:04;16.90;99.90
51615;DHT22;37695;52.960;6.188;2022-07-29T07:54:30;16.90;99.90
51615;DHT22;37695;52.960;6.188;2022-07-29T07:56:56;16.90;99.90
51615;DHT22;37695;52.960;6.188;2022-07-29T07:59:22;16.80;99.90
51615;DHT22;37695;52.960;6.188;2022-07-29T08:01:47;16.80;99.90
51615;DHT22;37695;52.960;6.188;2022-07-29T08:04:13;16.80;99.90
51615;DHT22;37695;52.960;6.188;2022-07-29T08:06:38;16.70;99.90
51615;DHT22;37695;52.960;6.188;2022-07-29T08:09:04;16.70;99.90
51615;DHT22;37695;52.960;6.188;2022-07-29T08:11:30;16.60;99.90
51615;DHT22;37695;52.960;6.188;2022-07-29T08:13:56;16.60;99.90
51615;DHT22;37695;52.960;6.188;2022-07-29T08:16:22;16.60;99.90
51615;DHT22;37695;52.960;6.188;2022-07-29T08:18:48;16.60;99.90
51615;DHT22;37695;52.960;6.188;2022-07-29T08:21:14;16.60;99.90
51615;DHT22;37695;52.960;6.188;2022-07-29T08:23:41;16.60;99.90
51615;DHT22;37695;52.960;6.188;2022-07-29T08:26:13;16.70;99.90
51615;DHT22;37695;52.960;6.188;2022-07-29T08:28:43;16.60;99.90
51615;DHT22;37695;52.960;6.188;2022-07-29T08:31:11;16.60;99.90
51615;DHT22;37695;52.960;6.188;2022-07-29T08:33:37;16.60;99.90
51615;DHT22;37695;52.960;6.188;2022-07-29T08:36:03;16.70;99.90
51615;DHT22;37695;52.960;6.188;2022-07-29T08:38:28;16.70;99.90
51615;DHT22;37695;52.960;6.188;2022-07-29T08:40:54;16.70;99.90
51615;DHT22;37695;52.960;6.188;2022-07-29T08:43:20;16.80;99.90
51615;DHT22;37695;52.960;6.188;2022-07-29T08:45:48;16.80;99.90
51615;DHT22;37695;52.960;6.188;2022-07-29T08:48:16;16.90;99.90
51615;DHT22;37695;52.960;6.188;2022-07-29T08:50:43;16.80;99.90
51615;DHT22;37695;52.960;6.188;2022-07-29T08:53:15;16.90;99.90
51615;DHT22;37695;52.960;6.188;2022-07-29T08:55:46;16.90;99.90
51615;DHT22;37695;52.960;6.188;2022-07-29T08:58:13;16.90;99.90
51615;DHT22;37695;52.960;6.188;2022-07-29T09:00:43;16.90;99.90
51615;DHT22;37695;52.960;6.188;2022-07-29T09:03:09;16.90;99.90
51615;DHT22;37695;52.960;6.188;2022-07-29T09:05:41;16.90;99.90
51615;DHT22;37695;52.960;6.188;2022-07-29T09:08:07;16.90;99.90
51615;DHT22;37695;52.960;6.188;2022-07-29T09:10:35;16.80;99.90
51615;DHT22;37695;52.960;6.188;2022-07-29T09:13:00;16.90;99.90
51615;DHT22;37695;52.960;6.188;2022-07-29T09:15:26;16.90;99.90
51615;DHT22;37695;52.960;6.188;2022-07-29T09:17:51;17.00;99.90
51615;DHT22;37695;52.960;6.188;2022-07-29T09:20:19;17.10;99.90
51615;DHT22;37695;52.960;6.188;2022-07-29T09:22:45;17.20;99.90
51615;DHT22;37695;52.960;6.188;2022-07-29T09:25:15;17.30;99.90
51615;DHT22;37695;52.960;6.188;2022-07-29T09:27:40;17.40;99.90
51615;DHT22;37695;52.960;6.188;2022-07-29T09:30:08;17.60;99.90
51615;DHT22;37695;52.960;6.188;2022-07-29T09:32:58;17.90;99.90
51615;DHT22;37695;52.960;6.188;2022-07-29T09:35:26;18.40;99.90
51615;DHT22;37695;52.960;6.188;2022-07-29T09:37:51;18.70;99.90
51615;DHT22;37695;52.960;6.188;2022-07-29T09:40:23;18.90;99.90
51615;DHT22;37695;52.960;6.188;2022-07-29T09:42:49;19.00;99.90
51615;DHT22;37695;52.960;6.188;2022-07-29T09:47:51;19.20;99.90
51615;DHT22;37695;52.960;6.188;2022-07-29T09:50:17;19.20;99.90
51615;DHT22;37695;52.960;6.188;2022-07-29T09:52:50;19.10;99.90
51615;DHT22;37695;52.960;6.188;2022-07-29T09:55:17;19.00;99.90
51615;DHT22;37695;52.960;6.188;2022-07-29T09:57:44;18.90;99.90
51615;DHT22;37695;52.960;6.188;2022-07-29T10:00:17;18.80;99.90
51615;DHT22;37695;52.960;6.188;2022-07-29T10:02:44;18.80;99.90
51615;DHT22;37695;52.960;6.188;2022-07-29T10:05:25;18.70;99.90
51615;DHT22;37695;52.960;6.188;2022-07-29T10:07:55;18.70;99.90
51615;DHT22;37695;52.960;6.188;2022-07-29T10:10:27;18.70;99.90
51615;DHT22;37695;52.960;6.188;2022-07-29T10:12:58;18.80;99.90
51615;DHT22;37695;52.960;6.188;2022-07-29T10:15:25;18.90;99.90
51615;DHT22;37695;52.960;6.188;2022-07-29T10:17:52;19.10;99.90
51615;DHT22;37695;52.960;6.188;2022-07-29T10:20:19;19.40;99.90
51615;DHT22;37695;52.960;6.188;2022-07-29T10:22:46;19.70;99.90
51615;DHT22;37695;52.960;6.188;2022-07-29T10:25:12;20.10;99.90
51615;DHT22;37695;52.960;6.188;2022-07-29T10:27:39;20.40;99.90
51615;DHT22;37695;52.960;6.188;2022-07-29T10:30:06;20.50;99.90
51615;DHT22;37695;52.960;6.188;2022-07-29T10:38:52;20.60;99.90
51615;DHT22;37695;52.960;6.188;2022-07-29T10:44:14;21.20;99.90
51615;DHT22;37695;52.960;6.188;2022-07-29T10:46:41;21.60;99.90
51615;DHT22;37695;52.960;6.188;2022-07-29T10:49:16;21.90;99.90
51615;DHT22;37695;52.960;6.188;2022-07-29T10:51:52;22.10;99.90
51615;DHT22;37695;52.960;6.188;2022-07-29T10:54:19;22.20;99.90
51615;DHT22;37695;52.960;6.188;2022-07-29T10:59:40;22.00;99.90
51615;DHT22;37695;52.960;6.188;2022-07-29T11:07:23;21.70;99.90
51615;DHT22;37695;52.960;6.188;2022-07-29T11:15:21;22.10;99.90
51615;DHT22;37695;52.960;6.188;2022-07-29T11:18:03;22.40;99.90
51615;DHT22;37695;52.960;6.188;2022-07-29T11:23:31;22.70;99.90
51615;DHT22;37695;52.960;6.188;2022-07-29T11:28:38;22.90;99.90
51615;DHT22;37695;52.960;6.188;2022-07-29T11:31:05;22.90;99.90
51615;DHT22;37695;52.960;6.188;2022-07-29T11:33:33;23.10;99.90
51615;DHT22;37695;52.960;6.188;2022-07-29T11:36:09;23.10;99.90
51615;DHT22;37695;52.960;6.188;2022-07-29T11:38:38;23.20;99.90
51615;DHT22;37695;52.960;6.188;2022-07-29T11:41:24;23.30;99.90
51615;DHT22;37695;52.960;6.188;2022-07-29T11:49:07;24.10;99.90
51615;DHT22;37695;52.960;6.188;2022-07-29T11:51:35;24.40;99.90
51615;DHT22;37695;52.960;6.188;2022-07-29T11:54:01;24.50;99.90
51615;DHT22;37695;52.960;6.188;2022-07-29T11:56:31;24.40;99.70
51615;DHT22;37695;52.960;6.188;2022-07-29T11:59:04;24.20;99.30
51615;DHT22;37695;52.960;6.188;2022-07-29T12:01:30;24.20;99.40
51615;DHT22;37695;52.960;6.188;2022-07-29T12:04:06;24.00;99.20
51615;DHT22;37695;52.960;6.188;2022-07-29T12:06:33;24.00;98.00
51615;DHT22;37695;52.960;6.188;2022-07-29T12:08:59;24.00;98.70
51615;DHT22;37695;52.960;6.188;2022-07-29T12:11:25;24.00;98.70
51615;DHT22;37695;52.960;6.188;2022-07-29T12:13:51;24.00;98.20
51615;DHT22;37695;52.960;6.188;2022-07-29T12:16:18;23.90;98.10
51615;DHT22;37695;52.960;6.188;2022-07-29T12:19:05;23.70;98.10
51615;DHT22;37695;52.960;6.188;2022-07-29T12:21:51;23.80;96.70
51615;DHT22;37695;52.960;6.188;2022-07-29T12:24:18;23.70;96.00
51615;DHT22;37695;52.960;6.188;2022-07-29T12:29:17;23.50;98.80
51615;DHT22;37695;52.960;6.188;2022-07-29T12:31:44;23.40;99.30
51615;DHT22;37695;52.960;6.188;2022-07-29T12:34:15;23.40;99.40
51615;DHT22;37695;52.960;6.188;2022-07-29T12:36:41;23.30;98.60
51615;DHT22;37695;52.960;6.188;2022-07-29T12:39:08;23.50;98.50
51615;DHT22;37695;52.960;6.188;2022-07-29T12:41:34;23.70;98.80
51615;DHT22;37695;52.960;6.188;2022-07-29T12:44:00;23.70;97.70
51615;DHT22;37695;52.960;6.188;2022-07-29T12:46:26;23.60;97.40
51615;DHT22;37695;52.960;6.188;2022-07-29T12:48:53;23.50;97.60
51615;DHT22;37695;52.960;6.188;2022-07-29T12:51:30;23.40;98.00
51615;DHT22;37695;52.960;6.188;2022-07-29T12:54:11;23.30;98.10
51615;DHT22;37695;52.960;6.188;2022-07-29T12:56:39;23.30;97.20
51615;DHT22;37695;52.960;6.188;2022-07-29T13:01:41;23.20;98.30
51615;DHT22;37695;52.960;6.188;2022-07-29T13:04:07;23.30;98.30
51615;DHT22;37695;52.960;6.188;2022-07-29T13:09:15;23.70;97.70
51615;DHT22;37695;52.960;6.188;2022-07-29T13:11:50;24.00;96.90
51615;DHT22;37695;52.960;6.188;2022-07-29T13:17:11;24.20;95.70
51615;DHT22;37695;52.960;6.188;2022-07-29T13:19:44;24.40;95.00
51615;DHT22;37695;52.960;6.188;2022-07-29T13:22:11;24.40;96.50
51615;DHT22;37695;52.960;6.188;2022-07-29T13:24:51;24.20;95.90
51615;DHT22;37695;52.960;6.188;2022-07-29T13:27:19;24.00;93.70
51615;DHT22;37695;52.960;6.188;2022-07-29T13:29:45;23.90;95.40
51615;DHT22;37695;52.960;6.188;2022-07-29T13:32:12;24.00;95.60
51615;DHT22;37695;52.960;6.188;2022-07-29T13:34:38;23.90;95.60
51615;DHT22;37695;52.960;6.188;2022-07-29T13:37:04;23.90;96.20
51615;DHT22;37695;52.960;6.188;2022-07-29T13:39:29;24.00;96.20
51615;DHT22;37695;52.960;6.188;2022-07-29T13:41:55;24.00;96.10
51615;DHT22;37695;52.960;6.188;2022-07-29T13:44:21;24.00;96.00
51615;DHT22;37695;52.960;6.188;2022-07-29T13:46:46;24.00;95.90
51615;DHT22;37695;52.960;6.188;2022-07-29T13:49:12;24.00;96.40
51615;DHT22;37695;52.960;6.188;2022-07-29T13:51:38;24.00;95.80
51615;DHT22;37695;52.960;6.188;2022-07-29T13:54:04;24.00;96.00
51615;DHT22;37695;52.960;6.188;2022-07-29T13:56:30;24.00;96.00
51615;DHT22;37695;52.960;6.188;2022-07-29T13:58:55;24.10;95.90
51615;DHT22;37695;52.960;6.188;2022-07-29T14:01:21;24.00;95.50
51615;DHT22;37695;52.960;6.188;2022-07-29T14:03:47;24.00;95.60
51615;DHT22;37695;52.960;6.188;2022-07-29T14:06:12;24.10;95.70
51615;DHT22;37695;52.960;6.188;2022-07-29T14:08:38;24.20;95.60
51615;DHT22;37695;52.960;6.188;2022-07-29T14:11:04;24.30;96.00
51615;DHT22;37695;52.960;6.188;2022-07-29T14:13:29;24.20;95.30
51615;DHT22;37695;52.960;6.188;2022-07-29T14:15:55;24.30;95.10
51615;DHT22;37695;52.960;6.188;2022-07-29T14:18:21;24.30;94.80
51615;DHT22;37695;52.960;6.188;2022-07-29T14:20:46;24.40;94.90
51615;DHT22;37695;52.960;6.188;2022-07-29T14:23:12;24.50;95.00
51615;DHT22;37695;52.960;6.188;2022-07-29T14:25:38;24.50;94.90
51615;DHT22;37695;52.960;6.188;2022-07-29T14:28:03;24.60;95.90
51615;DHT22;37695;52.960;6.188;2022-07-29T14:30:29;24.50;96.40
51615;DHT22;37695;52.960;6.188;2022-07-29T14:32:54;24.40;95.40
51615;DHT22;37695;52.960;6.188;2022-07-29T14:35:20;24.40;95.40
51615;DHT22;37695;52.960;6.188;2022-07-29T14:37:45;24.50;95.40
51615;DHT22;37695;52.960;6.188;2022-07-29T14:40:11;24.70;94.70
51615;DHT22;37695;52.960;6.188;2022-07-29T14:42:37;24.90;94.80
51615;DHT22;37695;52.960;6.188;2022-07-29T14:45:05;24.90;94.60
51615;DHT22;37695;52.960;6.188;2022-07-29T14:47:30;24.90;93.90
51615;DHT22;37695;52.960;6.188;2022-07-29T14:49:56;24.90;93.30
51615;DHT22;37695;52.960;6.188;2022-07-29T14:52:21;24.90;93.10
51615;DHT22;37695;52.960;6.188;2022-07-29T14:54:47;24.80;92.60
51615;DHT22;37695;52.960;6.188;2022-07-29T14:57:13;24.70;92.20
51615;DHT22;37695;52.960;6.188;2022-07-29T14:59:38;24.60;92.30
51615;DHT22;37695;52.960;6.188;2022-07-29T15:02:04;24.60;92.40
51615;DHT22;37695;52.960;6.188;2022-07-29T15:04:30;24.60;92.10
51615;DHT22;37695;52.960;6.188;2022-07-29T15:06:55;24.50;92.30
51615;DHT22;37695;52.960;6.188;2022-07-29T15:09:21;24.40;92.10
51615;DHT22;37695;52.960;6.188;2022-07-29T15:11:46;24.30;92.10
51615;DHT22;37695;52.960;6.188;2022-07-29T15:14:12;24.30;92.90
51615;DHT22;37695;52.960;6.188;2022-07-29T15:16:38;24.40;92.60
51615;DHT22;37695;52.960;6.188;2022-07-29T15:19:05;24.40;92.40
51615;DHT22;37695;52.960;6.188;2022-07-29T15:21:31;24.40;92.10
51615;DHT22;37695;52.960;6.188;2022-07-29T15:23:56;24.40;92.00
51615;DHT22;37695;52.960;6.188;2022-07-29T15:26:22;24.50;91.90
51615;DHT22;37695;52.960;6.188;2022-07-29T15:28:48;24.50;91.30
51615;DHT22;37695;52.960;6.188;2022-07-29T15:31:13;24.60;91.70
51615;DHT22;37695;52.960;6.188;2022-07-29T15:33:39;24.50;91.60
51615;DHT22;37695;52.960;6.188;2022-07-29T15:36:05;24.50;91.60
51615;DHT22;37695;52.960;6.188;2022-07-29T15:38:30;24.50;91.10
51615;DHT22;37695;52.960;6.188;2022-07-29T15:40:56;24.40;91.20
51615;DHT22;37695;52.960;6.188;2022-07-29T15:43:23;24.40;91.40
51615;DHT22;37695;52.960;6.188;2022-07-29T15:45:48;24.40;91.00
51615;DHT22;37695;52.960;6.188;2022-07-29T15:48:33;24.30;91.00
51615;DHT22;37695;52.960;6.188;2022-07-29T15:50:59;24.30;91.30
51615;DHT22;37695;52.960;6.188;2022-07-29T15:53:25;24.30;92.20
51615;DHT22;37695;52.960;6.188;2022-07-29T15:55:51;24.30;92.00
51615;DHT22;37695;52.960;6.188;2022-07-29T15:58:16;24.20;91.70
51615;DHT22;37695;52.960;6.188;2022-07-29T16:00:42;24.20;91.80
51615;DHT22;37695;52.960;6.188;2022-07-29T16:03:08;24.20;92.30
51615;DHT22;37695;52.960;6.188;2022-07-29T16:05:33;24.10;92.10
51615;DHT22;37695;52.960;6.188;2022-07-29T16:07:59;24.10;91.70
51615;DHT22;37695;52.960;6.188;2022-07-29T16:10:25;24.00;91.70
51615;DHT22;37695;52.960;6.188;2022-07-29T16:12:50;23.90;91.30
51615;DHT22;37695;52.960;6.188;2022-07-29T16:15:16;23.90;91.70
51615;DHT22;37695;52.960;6.188;2022-07-29T16:17:41;23.80;92.40
51615;DHT22;37695;52.960;6.188;2022-07-29T16:20:08;23.80;92.30
51615;DHT22;37695;52.960;6.188;2022-07-29T16:22:33;23.90;92.00
51615;DHT22;37695;52.960;6.188;2022-07-29T16:24:59;23.90;91.70
51615;DHT22;37695;52.960;6.188;2022-07-29T16:27:24;23.80;91.80